Time;durP1;ratioP1;P1;durP2;ratioP2;P2;SDS_P1;SDS_P2;PMS_P1;PMS_P2;Temp;Humidity;BMP_temperature;BMP_pressure;BME280_temperature;BME280_humidity;BME280_pressure;Samples;Min_cycle;Max_cycle;Signal;HPM_P1;HPM_P2
2022/06/19 00:00:17;;;;;;;9.57;2.72;;;23.30;99.90;;;;;;5024488;28;20080;-75
2022/06/19 00:02:45;;;;;;;12.13;3.80;;;23.30;99.90;;;;;;5008996;28;20030;-76
2022/06/19 00:05:12;;;;;;;12.93;3.47;;;23.20;99.90;;;;;;5013519;28;20025;-75
2022/06/19 00:07:38;;;;;;;9.15;4.03;;;23.20;99.90;;;;;;5028683;28;20105;-74
2022/06/19 00:10:06;;;;;;;9.60;3.00;;;23.20;99.90;;;;;;5034641;28;20060;-75
2022/06/19 00:12:32;;;;;;;11.65;3.15;;;23.20;99.90;;;;;;5030450;28;20029;-76
2022/06/19 00:14:58;;;;;;;14.52;4.18;;;23.20;99.90;;;;;;5036376;28;20064;-76
2022/06/19 00:17:24;;;;;;;13.18;3.95;;;23.20;99.90;;;;;;5016812;28;20022;-75
2022/06/19 00:19:50;;;;;;;17.25;3.67;;;23.10;99.90;;;;;;5020594;28;20021;-74
2022/06/19 00:22:16;;;;;;;16.33;3.88;;;23.10;99.90;;;;;;5038436;28;20390;-75
2022/06/19 00:24:42;;;;;;;13.65;3.10;;;23.10;99.90;;;;;;5032149;28;20026;-75
2022/06/19 00:27:08;;;;;;;11.77;3.75;;;23.10;99.90;;;;;;5022256;28;20083;-76
2022/06/19 00:29:33;;;;;;;10.00;3.40;;;23.10;99.90;;;;;;5022239;28;20021;-76
2022/06/19 00:32:00;;;;;;;10.85;3.85;;;23.10;99.90;;;;;;5024743;28;20022;-76
2022/06/19 00:34:26;;;;;;;9.65;4.07;;;23.00;99.90;;;;;;5008156;28;20547;-75
2022/06/19 00:36:52;;;;;;;14.20;3.72;;;23.00;99.90;;;;;;5026538;28;20026;-75
2022/06/19 00:39:19;;;;;;;10.52;4.13;;;22.90;99.90;;;;;;5029457;28;20017;-76
2022/06/19 00:41:47;;;;;;;12.77;3.63;;;23.00;99.90;;;;;;5034548;28;20025;-75
2022/06/19 00:44:15;;;;;;;10.95;3.80;;;22.90;99.90;;;;;;5017770;28;20056;-76
2022/06/19 00:46:54;;;;;;;8.73;4.05;;;22.90;99.90;;;;;;5036760;28;20475;-75
2022/06/19 00:49:27;;;;;;;8.55;4.35;;;22.90;99.90;;;;;;5038873;28;20108;-74
2022/06/19 00:52:10;;;;;;;10.00;4.28;;;22.90;99.90;;;;;;5022181;28;20024;-75
2022/06/19 00:54:43;;;;;;;11.10;3.75;;;22.90;99.90;;;;;;5003792;28;20075;-76
2022/06/19 00:57:11;;;;;;;12.75;3.55;;;22.90;99.90;;;;;;5022406;28;20014;-75
2022/06/19 00:59:42;;;;;;;14.77;4.30;;;22.80;99.90;;;;;;5023825;28;20022;-75
2022/06/19 01:02:08;;;;;;;7.63;3.85;;;22.80;99.90;;;;;;5025502;28;20033;-76
2022/06/19 01:04:41;;;;;;;13.43;4.00;;;22.80;99.90;;;;;;5027001;28;20385;-75
2022/06/19 01:07:08;;;;;;;8.13;3.88;;;22.80;99.90;;;;;;5010501;28;20030;-74
2022/06/19 01:09:34;;;;;;;9.10;4.00;;;22.80;99.90;;;;;;5030402;28;20022;-75
2022/06/19 01:12:04;;;;;;;9.18;4.07;;;22.80;99.90;;;;;;5030868;28;20479;-75
2022/06/19 01:14:31;;;;;;;14.30;4.72;;;22.70;99.90;;;;;;5033170;28;20026;-75
2022/06/19 01:17:00;;;;;;;18.92;4.85;;;22.70;99.90;;;;;;5017727;28;20038;-74
2022/06/19 01:19:29;;;;;;;13.93;4.10;;;22.70;99.90;;;;;;5035610;28;20029;-75
2022/06/19 01:22:08;;;;;;;16.52;4.13;;;22.70;99.90;;;;;;5037871;28;20108;-75
2022/06/19 01:24:38;;;;;;;12.27;4.03;;;22.70;99.90;;;;;;5019255;28;20022;-75
2022/06/19 01:27:05;;;;;;;;;;;22.70;99.90;;;;;;5021152;28;20018;-74
2022/06/19 01:29:33;;;;;;;10.80;4.30;;;22.60;99.90;;;;;;5021019;28;19910;-76
2022/06/19 01:32:03;;;;;;;16.77;4.50;;;22.60;99.90;;;;;;5022576;28;20022;-75
2022/06/19 01:34:39;;;;;;;15.90;4.77;;;22.60;99.90;;;;;;5023659;28;20021;-74
2022/06/19 01:37:15;;;;;;;10.35;3.95;;;22.60;99.90;;;;;;5008982;28;20432;-75
2022/06/19 01:39:47;;;;;;;12.55;4.85;;;22.60;99.90;;;;;;5007512;28;20037;-74
2022/06/19 01:42:15;;;;;;;17.00;4.85;;;22.60;99.90;;;;;;5012429;28;20040;-75
2022/06/19 01:44:43;;;;;;;12.23;3.70;;;22.50;99.90;;;;;;5019671;28;20108;-76
2022/06/19 01:47:10;;;;;;;12.88;5.05;;;22.60;99.90;;;;;;5036870;28;20025;-75
2022/06/19 01:49:38;;;;;;;16.88;4.13;;;22.60;99.90;;;;;;5037827;28;20060;-74
2022/06/19 01:52:05;;;;;;;13.63;4.75;;;22.50;99.90;;;;;;5020181;28;20021;-76
2022/06/19 01:54:41;;;;;;;13.77;5.00;;;22.50;99.90;;;;;;5020414;28;20018;-75
2022/06/19 01:57:09;;;;;;;14.50;5.00;;;22.50;99.90;;;;;;5004091;28;20022;-75
2022/06/19 01:59:39;;;;;;;14.25;4.85;;;22.40;99.90;;;;;;5036118;28;20013;-74
2022/06/19 02:02:08;;;;;;;16.50;5.10;;;22.40;99.90;;;;;;5036034;28;20061;-75
2022/06/19 02:04:34;;;;;;;9.77;4.72;;;22.40;99.90;;;;;;5026172;28;20089;-74
2022/06/19 02:07:08;;;;;;;8.27;4.72;;;22.40;99.90;;;;;;5031567;28;20105;-75
2022/06/19 02:09:35;;;;;;;10.32;4.22;;;22.30;99.90;;;;;;5033021;28;20021;-76
2022/06/19 02:12:02;;;;;;;9.23;4.97;;;22.30;99.90;;;;;;5036216;28;20108;-76
2022/06/19 02:14:30;;;;;;;13.43;4.47;;;22.30;99.90;;;;;;5036080;28;20493;-74
2022/06/19 02:16:56;;;;;;;12.75;4.60;;;22.30;99.90;;;;;;5027233;28;20083;-74
2022/06/19 02:19:22;;;;;;;9.27;4.70;;;22.30;99.90;;;;;;5020381;28;20026;-74
2022/06/19 02:21:52;;;;;;;15.43;4.75;;;22.40;99.90;;;;;;5020258;28;20457;-76
2022/06/19 02:24:21;;;;;;;;;;;22.30;99.90;;;;;;5024044;28;20014;-75
2022/06/19 02:26:48;;;;;;;11.32;5.10;;;22.30;99.90;;;;;;5004188;28;19991;-75
2022/06/19 02:29:16;;;;;;;16.52;4.78;;;22.30;99.90;;;;;;5028166;28;20513;-75
2022/06/19 02:31:47;;;;;;;9.27;5.00;;;22.20;99.90;;;;;;5029925;28;20009;-75
2022/06/19 02:34:21;;;;;;;11.30;5.10;;;22.20;99.90;;;;;;5031771;28;20048;-75
2022/06/19 02:36:56;;;;;;;12.27;5.57;;;22.20;99.90;;;;;;5027777;28;20014;-74
2022/06/19 02:39:28;;;;;;;14.60;5.25;;;22.20;99.90;;;;;;5033839;28;20486;-75
2022/06/19 02:42:19;;;;;;;17.35;5.80;;;22.10;99.90;;;;;;5030759;28;20401;-75
2022/06/19 02:44:49;;;;;;;13.77;5.22;;;22.10;99.90;;;;;;5033586;28;20506;-75
2022/06/19 02:47:16;;;;;;;16.83;5.38;;;22.10;99.90;;;;;;5007417;28;20009;-74
2022/06/19 02:49:42;;;;;;;19.90;5.57;;;22.10;99.90;;;;;;5036844;28;20049;-74
2022/06/19 02:52:11;;;;;;;15.35;5.20;;;22.10;99.90;;;;;;5019263;28;20018;-75
2022/06/19 02:54:38;;;;;;;14.00;6.40;;;22.10;99.90;;;;;;5020507;28;20054;-75
2022/06/19 02:57:05;;;;;;;11.57;5.30;;;22.10;99.90;;;;;;5004007;28;20461;-75
2022/06/19 02:59:32;;;;;;;10.23;5.22;;;22.20;99.90;;;;;;5023251;28;20383;-75
2022/06/19 03:01:58;;;;;;;14.43;5.10;;;22.10;99.90;;;;;;5007727;28;20045;-75
2022/06/19 03:04:29;;;;;;;15.18;5.93;;;22.20;99.90;;;;;;5025014;28;20018;-76
2022/06/19 03:06:56;;;;;;;7.88;4.90;;;22.20;99.90;;;;;;5017385;28;20022;-75
2022/06/19 03:09:22;;;;;;;12.80;5.63;;;22.10;99.90;;;;;;5028679;28;20100;-76
2022/06/19 03:11:48;;;;;;;13.88;5.30;;;22.10;99.90;;;;;;5015486;28;20061;-74
2022/06/19 03:14:13;;;;;;;14.80;5.45;;;22.10;99.90;;;;;;5031767;28;20026;-74
2022/06/19 03:16:40;;;;;;;9.68;5.00;;;22.10;99.90;;;;;;5035311;28;20022;-74
2022/06/19 03:19:06;;;;;;;13.75;5.35;;;22.10;99.90;;;;;;5035329;28;20018;-74
2022/06/19 03:21:32;;;;;;;10.45;4.50;;;22.10;99.90;;;;;;5019206;28;20383;-75
2022/06/19 03:23:57;;;;;;;14.80;5.57;;;22.10;99.90;;;;;;5023511;28;20036;-74
2022/06/19 03:26:26;;;;;;;9.90;5.43;;;22.10;99.90;;;;;;5019596;28;20487;-74
2022/06/19 03:28:53;;;;;;;17.65;5.50;;;22.10;99.90;;;;;;5022238;28;20065;-75
2022/06/19 03:31:21;;;;;;;12.38;5.32;;;22.10;99.90;;;;;;5021372;28;20033;-75
2022/06/19 03:33:47;;;;;;;14.35;5.85;;;22.10;99.90;;;;;;5025432;28;20428;-74
2022/06/19 03:36:13;;;;;;;10.55;4.78;;;22.00;99.90;;;;;;5027410;28;20010;-74
2022/06/19 03:38:39;;;;;;;16.95;5.18;;;22.10;99.90;;;;;;5030917;28;20474;-75
2022/06/19 03:41:04;;;;;;;13.98;6.28;;;22.00;99.90;;;;;;5014469;28;20032;-75
2022/06/19 03:43:33;;;;;;;13.13;5.05;;;22.00;99.90;;;;;;5031093;28;20026;-75
2022/06/19 03:46:06;;;;;;;14.15;6.47;;;22.00;99.90;;;;;;5035565;28;20381;-74
2022/06/19 03:48:32;;;;;;;15.77;5.88;;;22.00;99.90;;;;;;5016273;28;20063;-74
2022/06/19 03:50:57;;;;;;;14.10;5.07;;;22.00;99.90;;;;;;5020242;28;20056;-74
2022/06/19 03:53:23;;;;;;;10.90;6.18;;;22.00;99.90;;;;;;5036901;28;20056;-75
2022/06/19 03:55:49;;;;;;;18.92;5.35;;;22.00;99.90;;;;;;5039607;28;20027;-75
2022/06/19 03:58:15;;;;;;;11.93;5.88;;;22.00;99.90;;;;;;5018646;28;20572;-74
2022/06/19 04:00:41;;;;;;;22.17;6.60;;;22.00;99.90;;;;;;5021446;28;20064;-75
2022/06/19 04:03:07;;;;;;;11.93;5.78;;;22.00;99.90;;;;;;5023938;28;20029;-75
2022/06/19 04:05:33;;;;;;;12.90;6.25;;;21.90;99.90;;;;;;5026934;28;20025;-74
2022/06/19 04:07:59;;;;;;;15.63;5.72;;;21.90;99.90;;;;;;5016766;28;20038;-75
2022/06/19 04:10:26;;;;;;;16.05;6.18;;;21.90;99.90;;;;;;5015467;28;20371;-74
2022/06/19 04:12:52;;;;;;;12.38;5.68;;;21.90;99.90;;;;;;5015581;28;20456;-75
2022/06/19 04:15:18;;;;;;;16.98;6.28;;;21.90;99.90;;;;;;5036863;28;20026;-74
2022/06/19 04:17:44;;;;;;;14.50;6.07;;;21.90;99.90;;;;;;5035879;28;20083;-75
2022/06/19 04:20:11;;;;;;;17.70;5.60;;;21.90;99.90;;;;;;5039113;28;20017;-74
2022/06/19 04:22:38;;;;;;;14.82;5.88;;;21.90;99.90;;;;;;5018135;28;20053;-75
2022/06/19 04:25:06;;;;;;;15.23;5.90;;;21.90;99.90;;;;;;5021618;28;20097;-74
2022/06/19 04:27:33;;;;;;;12.73;5.70;;;21.90;99.90;;;;;;5023733;28;20029;-75
2022/06/19 04:29:58;;;;;;;15.23;5.95;;;21.90;99.90;;;;;;5023144;28;20045;-75
2022/06/19 04:32:24;;;;;;;12.02;5.85;;;22.00;99.90;;;;;;5027580;28;20029;-76
2022/06/19 04:34:50;;;;;;;18.65;6.20;;;21.90;99.90;;;;;;5007319;28;20095;-74
2022/06/19 04:37:16;;;;;;;16.90;6.47;;;22.00;99.90;;;;;;5030273;28;20397;-75
2022/06/19 04:39:42;;;;;;;12.93;5.70;;;22.00;99.90;;;;;;5027927;28;20018;-75
2022/06/19 04:42:08;;;;;;;13.93;5.53;;;22.00;99.90;;;;;;5014010;28;20091;-76
2022/06/19 04:44:34;;;;;;;11.55;5.40;;;22.10;99.90;;;;;;5013924;28;20028;-75
2022/06/19 04:47:00;;;;;;;12.23;5.95;;;22.10;99.90;;;;;;5016331;28;20466;-76
2022/06/19 04:49:26;;;;;;;16.63;5.88;;;22.10;99.90;;;;;;5014301;28;20054;-75
2022/06/19 04:51:52;;;;;;;20.67;6.28;;;22.10;99.90;;;;;;5015141;28;20066;-75
2022/06/19 04:54:18;;;;;;;14.50;6.32;;;22.10;99.90;;;;;;5018746;28;20030;-76
2022/06/19 04:56:46;;;;;;;14.70;7.35;;;22.10;99.90;;;;;;5013824;28;20217;-75
2022/06/19 04:59:12;;;;;;;10.50;5.95;;;22.20;99.90;;;;;;5000998;28;20022;-74
2022/06/19 05:01:39;;;;;;;14.13;6.00;;;22.20;99.90;;;;;;5003881;28;20022;-74
2022/06/19 05:04:08;;;;;;;13.32;6.35;;;22.20;99.90;;;;;;5002828;28;20081;-75
2022/06/19 05:06:35;;;;;;;18.83;7.05;;;22.20;99.90;;;;;;5013998;28;20041;-75
2022/06/19 05:09:01;;;;;;;13.20;6.50;;;22.30;99.90;;;;;;5010156;28;20085;-75
2022/06/19 05:11:31;;;;;;;12.90;6.13;;;22.30;99.90;;;;;;5015073;28;20109;-75
2022/06/19 05:13:57;;;;;;;12.63;6.13;;;22.30;99.90;;;;;;5013624;28;20022;-75
2022/06/19 05:16:24;;;;;;;13.88;6.05;;;22.30;99.90;;;;;;5016338;28;20022;-76
2022/06/19 05:18:53;;;;;;;9.60;6.38;;;22.40;99.90;;;;;;5017599;28;20029;-76
2022/06/19 05:21:19;;;;;;;16.75;6.25;;;22.40;99.90;;;;;;5012153;28;20080;-76
2022/06/19 05:23:47;;;;;;;14.48;6.43;;;22.50;99.90;;;;;;5001348;28;20073;-75
2022/06/19 05:26:25;;;;;;;17.25;6.30;;;22.50;99.90;;;;;;5000893;28;20431;-75
2022/06/19 05:28:53;;;;;;;14.30;6.30;;;22.50;99.90;;;;;;5004318;28;20145;-74
2022/06/19 05:31:19;;;;;;;11.05;5.88;;;22.60;99.90;;;;;;5010725;28;20033;-74
2022/06/19 05:33:45;;;;;;;15.80;5.70;;;22.60;99.90;;;;;;5016594;28;20040;-75
2022/06/19 05:36:11;;;;;;;11.35;5.13;;;22.70;99.90;;;;;;5011506;28;20022;-75
2022/06/19 05:38:37;;;;;;;13.30;6.18;;;22.70;99.90;;;;;;5007407;28;20044;-75
2022/06/19 05:41:04;;;;;;;12.32;6.00;;;22.70;99.90;;;;;;5016707;28;20025;-75
2022/06/19 05:43:32;;;;;;;13.70;5.60;;;22.80;99.90;;;;;;5015478;28;20026;-75
2022/06/19 05:46:01;;;;;;;15.27;5.82;;;22.80;99.90;;;;;;5016749;28;20101;-75
2022/06/19 05:48:28;;;;;;;19.38;6.25;;;22.80;99.90;;;;;;5023584;28;20049;-75
2022/06/19 05:51:12;;;;;;;9.15;5.68;;;22.90;99.90;;;;;;5020205;28;20026;-75
2022/06/19 05:53:41;;;;;;;15.60;5.80;;;23.00;99.90;;;;;;5005888;28;20029;-74
2022/06/19 05:56:07;;;;;;;13.77;5.50;;;23.00;99.90;;;;;;5022350;28;20382;-75
2022/06/19 05:58:35;;;;;;;12.15;5.50;;;23.10;99.90;;;;;;5008743;28;20022;-75
2022/06/19 06:01:02;;;;;;;13.77;5.55;;;23.10;99.90;;;;;;5023714;28;20095;-76
2022/06/19 06:03:28;;;;;;;13.70;6.13;;;23.10;99.90;;;;;;5030557;28;20527;-75
2022/06/19 06:06:00;;;;;;;11.43;5.13;;;23.20;99.90;;;;;;5032189;28;20076;-75
2022/06/19 06:08:26;;;;;;;13.82;5.55;;;23.30;99.90;;;;;;5015662;28;20069;-74
2022/06/19 06:10:52;;;;;;;12.50;5.70;;;23.30;99.90;;;;;;5013000;28;20018;-75
2022/06/19 06:13:18;;;;;;;10.90;5.50;;;23.40;99.90;;;;;;5017216;28;20109;-74
2022/06/19 06:15:45;;;;;;;15.10;4.38;;;23.50;99.90;;;;;;5016372;28;20478;-75
2022/06/19 06:18:11;;;;;;;14.82;4.85;;;23.50;99.90;;;;;;5019563;28;20573;-75
2022/06/19 06:20:37;;;;;;;18.70;5.97;;;23.50;99.90;;;;;;5037005;28;20071;-75
2022/06/19 06:23:03;;;;;;;16.55;5.68;;;23.70;99.90;;;;;;5019449;28;20034;-75
2022/06/19 06:25:29;;;;;;;12.38;5.10;;;23.80;99.90;;;;;;5020732;28;20399;-76
2022/06/19 06:27:55;;;;;;;18.60;5.43;;;23.80;99.90;;;;;;5004313;28;20026;-75
2022/06/19 06:30:20;;;;;;;11.82;5.40;;;23.90;99.90;;;;;;5004201;28;20076;-75
2022/06/19 06:32:46;;;;;;;15.57;6.78;;;23.90;99.90;;;;;;5025810;28;20029;-76
2022/06/19 06:35:12;;;;;;;16.92;5.53;;;23.90;99.90;;;;;;5023780;28;20505;-75
2022/06/19 06:37:38;;;;;;;11.13;4.78;;;24.00;99.90;;;;;;5012164;28;20072;-75
2022/06/19 06:40:09;;;;;;;8.23;4.97;;;24.10;99.90;;;;;;5032615;28;20018;-74
2022/06/19 06:42:35;;;;;;;14.48;5.35;;;24.20;99.90;;;;;;5033400;28;20040;-75
2022/06/19 06:45:02;;;;;;;11.60;4.97;;;24.20;99.90;;;;;;5031186;28;20084;-75
2022/06/19 06:47:27;;;;;;;10.90;4.03;;;24.30;99.90;;;;;;5035298;28;20021;-75
2022/06/19 06:49:53;;;;;;;16.35;4.72;;;24.40;99.90;;;;;;5034636;28;20537;-74
2022/06/19 06:52:19;;;;;;;11.57;4.68;;;24.40;99.90;;;;;;5037080;28;20026;-76
2022/06/19 06:54:45;;;;;;;15.52;5.00;;;24.50;99.90;;;;;;5023675;28;20025;-76
2022/06/19 06:57:11;;;;;;;17.80;5.30;;;24.50;99.90;;;;;;5001312;28;20021;-76
2022/06/19 06:59:37;;;;;;;13.90;4.43;;;24.70;99.90;;;;;;5021022;28;20033;-76
2022/06/19 07:02:05;;;;;;;12.68;4.22;;;24.70;99.90;;;;;;5004123;28;20025;-75
2022/06/19 07:04:31;;;;;;;11.05;5.22;;;24.60;99.90;;;;;;5023132;28;20502;-76
2022/06/19 07:06:57;;;;;;;14.55;4.65;;;24.80;99.90;;;;;;5007850;28;20087;-75
2022/06/19 07:09:23;;;;;;;10.90;4.72;;;24.80;99.90;;;;;;5024523;28;20054;-76
2022/06/19 07:11:49;;;;;;;12.45;5.25;;;24.90;99.90;;;;;;5010943;28;20025;-76
2022/06/19 07:14:17;;;;;;;10.27;4.35;;;25.00;99.90;;;;;;5026381;28;20018;-77
2022/06/19 07:16:43;;;;;;;8.95;4.00;;;25.10;99.90;;;;;;5014502;28;20036;-76
2022/06/19 07:19:09;;;;;;;13.45;4.63;;;25.20;99.90;;;;;;5011498;28;20021;-75
2022/06/19 07:21:36;;;;;;;12.10;4.70;;;25.30;99.90;;;;;;5034032;28;20490;-77
2022/06/19 07:24:02;;;;;;;11.82;4.28;;;25.30;99.90;;;;;;5015503;28;20072;-77
2022/06/19 07:26:29;;;;;;;16.48;4.32;;;25.50;99.90;;;;;;5035819;28;20512;-77
2022/06/19 07:28:55;;;;;;;11.20;3.67;;;25.50;99.90;;;;;;5034642;28;20394;-76
2022/06/19 07:31:21;;;;;;;16.23;3.97;;;25.50;99.90;;;;;;5000327;28;20030;-76
2022/06/19 07:33:47;;;;;;;13.57;4.57;;;25.60;99.90;;;;;;5003405;28;20029;-75
2022/06/19 07:36:19;;;;;;;8.20;3.65;;;25.60;99.90;;;;;;5019919;28;20022;-76
2022/06/19 07:38:45;;;;;;;14.65;4.10;;;25.60;99.90;;;;;;5029210;28;20014;-75
2022/06/19 07:41:11;;;;;;;10.93;3.67;;;25.70;99.90;;;;;;5031824;28;20033;-77
2022/06/19 07:43:37;;;;;;;15.20;4.35;;;25.70;99.90;;;;;;5012966;28;20088;-76
2022/06/19 07:46:04;;;;;;;10.20;4.30;;;25.90;99.90;;;;;;5016478;28;20033;-76
2022/06/19 07:51:14;;;;;;;21.23;4.85;;;26.10;99.90;;;;;;5036099;28;20500;-76
2022/06/19 07:53:39;;;;;;;15.02;4.13;;;26.30;99.90;;;;;;5000509;28;20097;-77
2022/06/19 07:56:05;;;;;;;17.65;4.28;;;26.40;99.90;;;;;;5018314;28;20026;-76
2022/06/19 07:58:34;;;;;;;10.75;4.07;;;26.50;99.90;;;;;;5003898;28;20029;-76
2022/06/19 08:01:00;;;;;;;8.80;4.00;;;26.60;99.90;;;;;;5020192;28;20033;-76
2022/06/19 08:03:26;;;;;;;16.65;4.10;;;26.60;99.90;;;;;;5034368;28;20045;-77
2022/06/19 08:05:52;;;;;;;13.07;3.95;;;26.70;99.90;;;;;;5022277;28;20076;-76
2022/06/19 08:08:21;;;;;;;10.15;4.03;;;26.60;99.90;;;;;;5023139;28;20112;-75
2022/06/19 08:10:50;;;;;;;17.58;4.25;;;26.70;99.90;;;;;;5024228;28;20026;-75
2022/06/19 08:13:21;;;;;;;13.82;4.35;;;26.80;99.90;;;;;;5012822;28;20394;-76
2022/06/19 08:15:54;;;;;;;14.00;3.83;;;26.90;99.90;;;;;;5027022;28;20018;-74
2022/06/19 08:18:21;;;;;;;13.40;4.05;;;27.10;99.90;;;;;;5015453;28;20057;-73
2022/06/19 08:20:47;;;;;;;9.55;4.43;;;27.30;99.90;;;;;;5013051;28;20018;-75
2022/06/19 08:23:14;;;;;;;12.48;4.28;;;27.30;99.90;;;;;;5038085;28;20025;-73
2022/06/19 08:25:41;;;;;;;10.60;4.22;;;27.40;99.90;;;;;;5038136;28;20022;-74
2022/06/19 08:28:08;;;;;;;21.40;4.35;;;27.40;99.90;;;;;;5030604;28;20022;-74
2022/06/19 08:30:37;;;;;;;14.68;3.85;;;27.50;99.90;;;;;;5004604;28;20068;-74
2022/06/19 08:33:04;;;;;;;9.90;3.97;;;27.60;99.90;;;;;;5021969;28;20022;-76
2022/06/19 08:35:34;;;;;;;10.65;3.90;;;27.80;99.90;;;;;;5025477;28;20014;-75
2022/06/19 08:38:05;;;;;;;8.25;3.30;;;27.80;99.90;;;;;;5026116;28;20076;-75
2022/06/19 08:41:07;;;;;;;12.90;4.32;;;27.80;99.90;;;;;;5035327;28;20021;-75
2022/06/19 08:43:54;;;;;;;14.68;5.00;;;28.00;99.90;;;;;;5032712;28;20025;-76
2022/06/19 08:46:45;;;;;;;14.07;3.72;;;28.20;99.90;;;;;;5035748;28;20060;-74
2022/06/19 08:49:59;;;;;;;15.05;3.92;;;28.00;99.90;;;;;;4976330;28;20264;-75
2022/06/19 08:53:02;;;;;;;18.73;3.85;;;27.80;99.90;;;;;;5028981;28;20437;-75
2022/06/19 08:55:44;;;;;;;15.10;4.13;;;27.90;99.90;;;;;;5020981;28;20030;-74
2022/06/19 08:58:13;;;;;;;13.43;3.30;;;28.00;99.90;;;;;;5005646;28;20080;-73
2022/06/19 09:00:50;;;;;;;15.23;3.40;;;28.20;99.90;;;;;;5022817;28;20487;-74
2022/06/19 09:06:43;;;;;;;12.85;3.58;;;28.10;99.90;;;;;;5029136;28;20087;-74
2022/06/19 09:09:32;;;;;;;12.80;3.88;;;28.10;99.90;;;;;;5025981;28;20463;-74
2022/06/19 09:12:26;;;;;;;16.15;3.55;;;28.10;99.90;;;;;;5012653;28;20038;-73
2022/06/19 09:15:02;;;;;;;13.77;3.22;;;28.20;99.90;;;;;;5026109;28;20033;-75
2022/06/19 09:17:50;;;;;;;10.63;3.70;;;28.40;99.90;;;;;;5030512;28;20030;-74
2022/06/19 09:20:44;;;;;;;9.63;3.42;;;28.50;99.90;;;;;;5000168;28;20034;-74
2022/06/19 09:23:38;;;;;;;21.85;4.10;;;28.60;99.90;;;;;;4992036;28;20036;-74
2022/06/19 09:26:18;;;;;;;10.43;3.17;;;28.60;99.90;;;;;;5019795;28;20040;-74
2022/06/19 09:28:50;;;;;;;11.80;3.40;;;28.60;99.90;;;;;;5020634;28;20021;-75
2022/06/19 09:31:27;;;;;;;9.40;3.28;;;28.60;99.90;;;;;;5002468;28;20033;-74
2022/06/19 09:34:10;;;;;;;9.35;3.80;;;28.60;99.90;;;;;;5004681;28;20027;-75
2022/06/19 09:36:57;;;;;;;9.65;3.20;;;28.70;99.90;;;;;;5022306;28;20014;-75
2022/06/19 09:39:33;;;;;;;13.43;3.38;;;28.80;99.90;;;;;;5032882;28;20449;-75
2022/06/19 09:42:18;;;;;;;12.23;3.13;;;29.00;99.90;;;;;;5034358;28;20013;-75
2022/06/19 09:45:12;;;;;;;12.10;2.70;;;29.20;99.90;;;;;;5032844;28;20512;-74
2022/06/19 09:47:43;;;;;;;16.63;3.92;;;29.40;99.90;;;;;;5028466;28;20028;-75
2022/06/19 09:50:19;;;;;;;10.45;3.33;;;29.50;99.90;;;;;;5018263;28;20112;-74
2022/06/19 09:53:04;;;;;;;14.40;3.15;;;29.50;99.90;;;;;;5038609;28;20099;-76
2022/06/19 09:56:00;;;;;;;10.85;3.03;;;29.60;99.90;;;;;;5001990;28;20029;-75
2022/06/19 09:58:50;;;;;;;21.05;3.75;;;29.60;99.10;;;;;;5028150;28;20026;-76
2022/06/19 10:01:16;;;;;;;20.40;3.60;;;29.40;99.70;;;;;;5017271;28;20042;-76
2022/06/19 10:03:49;;;;;;;16.38;3.03;;;29.30;99.70;;;;;;5014209;28;20022;-73
2022/06/19 10:06:50;;;;;;;13.77;3.22;;;29.30;99.00;;;;;;5009429;28;20025;-75
2022/06/19 10:09:35;;;;;;;8.23;2.75;;;29.40;99.70;;;;;;4977134;28;20038;-74
2022/06/19 10:12:04;;;;;;;10.82;3.33;;;29.40;99.30;;;;;;5036377;28;20359;-75
2022/06/19 10:14:39;;;;;;;12.60;2.97;;;29.60;99.30;;;;;;5036667;28;20079;-74
2022/06/19 10:17:23;;;;;;;17.10;3.55;;;29.60;99.30;;;;;;5026659;28;20116;-75
2022/06/19 10:19:53;;;;;;;12.73;3.13;;;29.60;99.00;;;;;;5019937;28;20036;-73
2022/06/19 10:22:25;;;;;;;16.33;3.35;;;29.60;98.30;;;;;;5022631;28;20028;-76
2022/06/19 10:24:57;;;;;;;9.98;3.47;;;29.70;98.40;;;;;;5022495;28;20040;-75
2022/06/19 10:27:52;;;;;;;9.18;2.80;;;29.90;99.00;;;;;;5025821;28;20057;-74
2022/06/19 10:30:35;;;;;;;8.52;3.20;;;29.90;98.20;;;;;;5024380;28;20084;-75
2022/06/19 10:33:18;;;;;;;17.40;4.18;;;30.10;98.20;;;;;;5035020;28;20053;-75
2022/06/19 10:36:07;;;;;;;10.88;2.40;;;30.10;97.80;;;;;;5031492;28;20049;-74
2022/06/19 10:38:56;;;;;;;11.48;2.83;;;30.10;97.40;;;;;;5029902;28;20078;-75
2022/06/19 10:44:48;;;;;;;13.20;3.28;;;30.10;97.60;;;;;;5026593;28;20394;-75
2022/06/19 10:47:40;;;;;;;15.77;3.42;;;30.00;97.90;;;;;;5024447;28;20386;-74
2022/06/19 10:50:21;;;;;;;10.02;2.80;;;30.00;97.90;;;;;;5016903;28;20105;-74
2022/06/19 10:52:55;;;;;;;14.15;2.40;;;30.00;97.80;;;;;;5019463;28;20033;-75
2022/06/19 10:55:33;;;;;;;17.15;2.92;;;30.20;97.40;;;;;;5020411;28;20022;-74
2022/06/19 10:58:07;;;;;;;16.85;3.25;;;30.40;97.50;;;;;;5004586;28;20022;-74
2022/06/19 11:00:34;;;;;;;12.48;3.13;;;30.60;96.90;;;;;;5023786;28;20022;-74
2022/06/19 11:06:18;;;;;;;12.52;3.75;;;30.70;97.00;;;;;;5031077;28;20040;-74
2022/06/19 11:08:50;;;;;;;12.10;2.90;;;30.80;96.40;;;;;;5031376;28;20390;-74
2022/06/19 11:11:18;;;;;;;10.75;2.92;;;30.70;96.10;;;;;;5031330;28;20036;-75
2022/06/19 11:14:07;;;;;;;7.93;2.78;;;30.70;96.60;;;;;;5016362;28;20032;-75
2022/06/19 11:16:34;;;;;;;10.13;3.03;;;30.80;96.40;;;;;;5030158;28;20045;-76
2022/06/19 11:19:01;;;;;;;12.88;3.03;;;30.90;96.40;;;;;;5017734;28;20035;-74
2022/06/19 11:21:33;;;;;;;17.83;3.90;;;31.10;95.90;;;;;;5029365;28;20375;-74
2022/06/19 11:24:05;;;;;;;14.15;3.20;;;31.00;95.60;;;;;;5019386;28;20026;-75
2022/06/19 11:26:35;;;;;;;10.43;3.17;;;31.00;95.70;;;;;;5002115;28;20026;-75
2022/06/19 11:29:13;;;;;;;7.70;2.90;;;31.10;95.80;;;;;;5023629;28;20500;-76
2022/06/19 11:32:01;;;;;;;6.53;2.80;;;31.30;95.60;;;;;;5021500;28;20304;-76
2022/06/19 11:34:51;;;;;;;12.82;3.17;;;31.30;95.70;;;;;;5004813;28;20052;-76
2022/06/19 11:37:23;;;;;;;12.75;3.35;;;31.40;95.80;;;;;;5027923;28;20548;-76
2022/06/19 11:39:51;;;;;;;13.50;3.67;;;31.20;95.50;;;;;;5025541;28;20113;-75
2022/06/19 11:42:25;;;;;;;12.90;3.10;;;31.30;95.90;;;;;;5031065;28;20028;-75
2022/06/19 11:45:06;;;;;;;6.32;2.97;;;31.60;96.40;;;;;;5011035;28;20022;-75
2022/06/19 11:48:00;;;;;;;12.23;3.25;;;31.60;95.40;;;;;;5016304;28;20470;-75
2022/06/19 11:50:38;;;;;;;7.93;3.13;;;31.50;95.60;;;;;;5002718;28;20129;-77
2022/06/19 11:53:16;;;;;;;12.25;3.72;;;31.60;96.20;;;;;;5035063;28;20026;-76
2022/06/19 11:55:48;;;;;;;16.25;3.13;;;31.60;95.80;;;;;;5009616;28;20018;-76
2022/06/19 11:58:30;;;;;;;15.02;3.25;;;31.70;95.60;;;;;;5022890;28;20494;-77
2022/06/19 12:01:17;;;;;;;13.15;4.28;;;31.60;95.30;;;;;;5005145;28;20026;-75
2022/06/19 12:03:57;;;;;;;16.30;2.92;;;31.60;95.50;;;;;;5006468;28;20112;-76
2022/06/19 12:06:37;;;;;;;16.58;3.85;;;31.50;95.20;;;;;;5034122;28;20030;-77
2022/06/19 12:09:04;;;;;;;;;;;31.50;95.50;;;;;;5032427;28;20057;-76
2022/06/19 12:11:42;;;;;;;19.15;4.60;;;31.60;95.60;;;;;;5036555;28;20461;-76
2022/06/19 12:14:11;;;;;;;12.63;3.10;;;31.60;95.20;;;;;;5035746;28;20022;-76
2022/06/19 12:16:38;;;;;;;18.95;4.13;;;31.50;95.50;;;;;;5038970;28;20367;-76
2022/06/19 12:19:24;;;;;;;14.00;3.75;;;31.50;95.70;;;;;;5039629;28;20018;-75
2022/06/19 12:22:10;;;;;;;16.85;4.00;;;31.50;95.60;;;;;;5029336;28;20097;-75
2022/06/19 12:24:53;;;;;;;12.70;3.28;;;31.70;95.50;;;;;;5004649;28;20014;-75
2022/06/19 12:27:21;;;;;;;11.90;3.47;;;31.90;95.60;;;;;;5008062;28;20025;-76
2022/06/19 12:29:58;;;;;;;15.75;3.85;;;31.90;95.90;;;;;;5006707;28;20026;-76
2022/06/19 12:32:30;;;;;;;12.98;3.78;;;32.10;95.10;;;;;;5011921;28;20018;-74
2022/06/19 12:35:00;;;;;;;12.77;3.70;;;32.20;95.10;;;;;;5025986;28;20025;-76
2022/06/19 12:37:30;;;;;;;;;;;32.10;95.00;;;;;;5015729;28;20021;-76
2022/06/19 12:39:56;;;;;;;13.48;3.58;;;32.40;95.60;;;;;;5027910;28;20316;-75
2022/06/19 12:42:29;;;;;;;14.30;3.33;;;32.50;95.10;;;;;;5034529;28;20028;-75
2022/06/19 12:45:19;;;;;;;13.85;3.10;;;32.40;94.30;;;;;;5013698;28;20037;-76
2022/06/19 12:48:09;;;;;;;13.10;3.33;;;32.40;94.90;;;;;;5018204;28;20048;-75
2022/06/19 12:50:47;;;;;;;15.23;3.60;;;32.70;95.20;;;;;;5010048;28;20116;-76
2022/06/19 12:53:40;;;;;;;14.70;3.72;;;32.80;93.80;;;;;;5019846;28;20029;-75
2022/06/19 12:56:11;;;;;;;11.75;3.40;;;32.90;94.40;;;;;;5008920;28;20025;-75
2022/06/19 12:58:42;;;;;;;15.02;3.63;;;32.90;93.80;;;;;;5003214;28;20049;-76
2022/06/19 13:01:30;;;;;;;13.57;3.67;;;32.90;94.30;;;;;;5022462;28;20418;-74
2022/06/19 13:04:14;;;;;;;12.90;3.15;;;33.00;94.00;;;;;;5005216;28;20056;-75
2022/06/19 13:06:55;;;;;;;15.02;3.55;;;33.00;93.40;;;;;;5031445;28;20028;-75
2022/06/19 13:09:39;;;;;;;8.93;3.22;;;33.00;93.80;;;;;;5012835;28;20034;-76
2022/06/19 13:12:28;;;;;;;11.65;3.60;;;33.00;94.10;;;;;;5035034;28;20033;-75